Time;durP1;ratioP1;P1;durP2;ratioP2;P2;SDS_P1;SDS_P2;PMS_P1;PMS_P2;Temp;Humidity;BMP_temperature;BMP_pressure;BME280_temperature;BME280_humidity;BME280_pressure;Samples;Min_cycle;Max_cycle;Signal;HPM_P1;HPM_P2
2021/05/04 11:39:04;;;;;;;4.45;1.90;;;14.70;74.30;;;;;;5112682;27;20372;-87
2021/05/04 11:41:30;;;;;;;9.98;2.83;;;14.60;72.50;;;;;;5112168;28;20019;-88
2021/05/04 11:43:55;;;;;;;9.45;3.28;;;14.80;74.30;;;;;;5113495;28;20103;-88
2021/05/04 11:46:24;;;;;;;8.20;1.60;;;15.20;73.50;;;;;;5103230;28;20059;-88
2021/05/04 11:49:00;;;;;;;6.88;1.60;;;15.40;71.40;;;;;;5113412;28;20114;-84
2021/05/04 11:51:26;;;;;;;6.50;1.90;;;15.70;72.90;;;;;;5109586;28;20163;-86
2021/05/04 11:53:52;;;;;;;10.82;2.53;;;15.90;71.00;;;;;;5111392;28;20056;-85
2021/05/04 11:56:17;;;;;;;11.93;2.90;;;16.10;70.60;;;;;;5112851;28;20035;-86
2021/05/04 11:58:43;;;;;;;5.10;1.85;;;16.00;70.50;;;;;;5109364;28;20030;-86
2021/05/04 12:01:09;;;;;;;6.03;2.00;;;16.10;71.90;;;;;;5112964;28;20039;-85
2021/05/04 12:03:35;;;;;;;7.20;2.42;;;16.20;70.60;;;;;;5112631;28;20131;-85
2021/05/04 12:06:03;;;;;;;8.43;3.00;;;16.30;70.60;;;;;;5109372;28;20054;-86
2021/05/04 12:08:29;;;;;;;4.35;1.42;;;16.40;70.80;;;;;;5112574;28;20387;-87
2021/05/04 12:10:55;;;;;;;5.38;1.35;;;16.30;70.10;;;;;;5110483;28;20113;-85
2021/05/04 12:13:25;;;;;;;4.22;1.88;;;16.20;68.40;;;;;;5112462;28;20031;-86
2021/05/04 12:15:52;;;;;;;;;;;16.20;70.60;;;;;;5113073;28;20367;-87
2021/05/04 12:18:28;;;;;;;6.38;1.60;;;16.30;70.00;;;;;;5109996;28;19908;-85
2021/05/04 12:20:56;;;;;;;7.20;1.83;;;16.30;70.70;;;;;;5112514;28;20026;-87
2021/05/04 12:23:26;;;;;;;11.10;2.72;;;16.40;70.70;;;;;;5112175;28;20020;-86
2021/05/04 12:25:58;;;;;;;6.05;2.10;;;16.50;70.70;;;;;;5109622;28;20020;-87
2021/05/04 12:28:26;;;;;;;7.30;2.03;;;16.40;69.80;;;;;;5110821;28;20114;-85
2021/05/04 12:31:06;;;;;;;7.93;1.92;;;16.30;70.90;;;;;;5111293;28;20043;-87
2021/05/04 12:33:33;;;;;;;9.88;2.63;;;16.10;70.50;;;;;;5104814;28;20035;-86
2021/05/04 12:36:20;;;;;;;8.95;3.05;;;16.10;71.50;;;;;;5103780;28;20457;-87
2021/05/04 12:38:58;;;;;;;10.82;4.05;;;16.10;71.40;;;;;;5104325;28;20664;-86
2021/05/04 12:41:36;;;;;;;9.70;3.17;;;16.40;71.60;;;;;;5110386;28;20024;-86
2021/05/04 12:46:44;;;;;;;8.73;2.17;;;16.80;69.10;;;;;;5104723;28;20024;-86
2021/05/04 12:49:10;;;;;;;6.93;1.95;;;16.80;70.20;;;;;;5102407;28;20045;-87
2021/05/04 12:51:39;;;;;;;7.32;2.10;;;16.90;69.50;;;;;;5093444;28;20017;-85
2021/05/04 12:54:19;;;;;;;5.80;1.98;;;16.90;70.10;;;;;;5088085;28;20058;-86
2021/05/04 12:56:54;;;;;;;10.15;3.20;;;16.90;69.80;;;;;;5085859;28;20099;-86
2021/05/04 12:59:31;;;;;;;6.30;1.80;;;17.20;70.30;;;;;;5096400;28;20024;-86
2021/05/04 13:02:05;;;;;;;6.45;2.30;;;17.30;69.60;;;;;;5097454;28;20459;-87
2021/05/04 13:04:45;;;;;;;6.07;1.90;;;17.50;68.90;;;;;;5095725;28;20398;-87
2021/05/04 13:07:57;;;;;;;6.80;1.90;;;17.70;66.70;;;;;;5089160;28;20036;-87
2021/05/04 13:13:54;;;;;;;4.15;1.55;;;17.90;63.90;;;;;;5083161;28;20502;-87
2021/05/04 13:19:37;;;;;;;5.63;1.25;;;17.80;63.90;;;;;;5094304;28;20022;-87
2021/05/04 13:30:21;;;;;;;6.32;1.95;;;17.20;63.90;;;;;;5096664;28;20049;-86
2021/05/04 13:32:54;;;;;;;5.47;1.38;;;17.10;63.50;;;;;;5088143;28;20039;-86
2021/05/04 13:35:23;;;;;;;5.78;1.80;;;17.20;64.50;;;;;;5094907;28;20458;-87
2021/05/04 13:38:15;;;;;;;5.85;1.65;;;17.30;65.70;;;;;;5092146;28;20044;-86
2021/05/04 13:48:55;;;;;;;5.47;3.03;;;17.80;63.80;;;;;;5076875;28;20040;-87
2021/05/04 13:51:20;;;;;;;6.43;2.97;;;17.90;63.80;;;;;;5080297;28;20023;-87
2021/05/04 13:53:46;;;;;;;6.05;1.98;;;18.10;61.40;;;;;;5094983;28;20036;-87
2021/05/04 13:56:12;;;;;;;5.40;1.70;;;18.10;61.60;;;;;;5096458;28;20028;-86
2021/05/04 13:58:37;;;;;;;3.40;1.15;;;18.20;60.20;;;;;;5094600;28;20134;-86
2021/05/04 14:03:42;;;;;;;9.68;3.08;;;18.30;60.00;;;;;;5096446;28;20034;-86
2021/05/04 14:27:33;;;;;;;2.72;1.13;;;18.20;57.90;;;;;;5075853;28;20139;-81
2021/05/04 14:30:00;;;;;;;2.47;0.90;;;18.10;56.90;;;;;;5075592;28;20032;-81
2021/05/04 14:32:26;;;;;;;2.83;1.10;;;18.00;58.60;;;;;;5082509;28;20090;-80
2021/05/04 14:34:54;;;;;;;3.58;1.00;;;18.00;58.20;;;;;;5082873;28;20040;-81
2021/05/04 14:42:59;;;;;;;4.88;1.00;;;18.30;58.30;;;;;;5084494;28;20029;-81
2021/05/04 14:53:55;;;;;;;4.15;1.20;;;18.30;57.20;;;;;;5095379;28;20537;-78
2021/05/04 15:03:59;;;;;;;2.90;1.17;;;18.60;56.40;;;;;;5088413;28;20028;-78
2021/05/04 15:06:25;;;;;;;3.60;1.15;;;18.70;56.10;;;;;;5090472;28;20026;-79
2021/05/04 15:08:51;;;;;;;2.60;1.05;;;18.70;55.50;;;;;;5092125;28;20110;-78
2021/05/04 15:11:17;;;;;;;4.85;0.90;;;18.60;55.60;;;;;;5089902;28;20036;-78
2021/05/04 15:13:46;;;;;;;1.73;0.68;;;18.40;55.50;;;;;;5093235;28;20022;-78
2021/05/04 15:24:05;;;;;;;4.70;1.17;;;18.40;56.60;;;;;;5094237;28;20453;-78
2021/05/04 15:26:31;;;;;;;3.05;0.90;;;18.30;56.50;;;;;;5089529;28;20109;-78
2021/05/04 15:28:57;;;;;;;3.35;1.20;;;18.10;56.90;;;;;;5093070;28;20032;-78
2021/05/04 15:31:23;;;;;;;6.05;1.23;;;17.80;57.90;;;;;;5092936;28;20081;-78
2021/05/04 15:33:49;;;;;;;3.20;1.10;;;17.80;57.80;;;;;;5094282;28;20024;-79
2021/05/04 15:36:17;;;;;;;2.30;1.00;;;17.70;58.10;;;;;;5092913;28;20099;-78
2021/05/04 15:38:44;;;;;;;3.22;1.23;;;17.60;57.10;;;;;;5092185;28;20043;-78
2021/05/04 15:41:11;;;;;;;2.50;0.88;;;17.50;57.60;;;;;;5083448;28;20040;-78
2021/05/04 15:43:38;;;;;;;3.38;1.08;;;17.40;58.10;;;;;;5090763;28;20790;-78
2021/05/04 15:46:31;;;;;;;3.03;1.30;;;17.30;57.70;;;;;;5092782;28;20063;-78
2021/05/04 15:48:55;;;;;;;3.78;1.02;;;17.30;58.10;;;;;;5090824;28;21371;-78
2021/05/04 16:07:10;;;;;;;2.25;0.77;;;18.00;57.60;;;;;;5090483;28;20039;-79
2021/05/04 16:09:38;;;;;;;5.40;1.08;;;18.00;56.00;;;;;;5091795;28;20032;-80
2021/05/04 16:12:05;;;;;;;4.57;1.27;;;18.00;56.80;;;;;;5090765;28;20031;-80
2021/05/04 16:14:30;;;;;;;4.55;0.95;;;18.00;57.40;;;;;;5086732;28;20624;-79
2021/05/04 16:16:56;;;;;;;3.10;1.05;;;18.00;57.10;;;;;;5084328;28;20094;-80
2021/05/04 16:19:31;;;;;;;4.15;0.93;;;18.00;57.00;;;;;;5076834;28;20099;-80
2021/05/04 16:21:59;;;;;;;3.95;1.48;;;17.80;57.80;;;;;;5084605;28;20447;-82
2021/05/04 16:24:29;;;;;;;2.10;0.85;;;17.70;58.50;;;;;;5081567;28;20021;-82
2021/05/04 16:27:02;;;;;;;4.18;1.60;;;17.60;58.40;;;;;;5087093;28;20020;-79
2021/05/04 16:32:13;;;;;;;6.60;2.53;;;17.60;58.70;;;;;;5090749;28;20031;-76
2021/05/04 16:34:39;;;;;;;5.05;1.30;;;17.50;58.80;;;;;;5077103;28;20104;-76
2021/05/04 16:37:05;;;;;;;5.80;2.05;;;17.60;57.30;;;;;;5075267;28;20056;-80
2021/05/04 16:39:31;;;;;;;6.13;1.48;;;17.70;58.20;;;;;;5085138;28;20028;-80
2021/05/04 16:41:57;;;;;;;8.20;1.80;;;17.80;58.40;;;;;;5090003;28;20044;-80
2021/05/04 16:44:23;;;;;;;7.50;1.50;;;17.70;58.10;;;;;;5087266;28;20093;-80
2021/05/04 16:46:58;;;;;;;7.80;2.53;;;17.70;58.10;;;;;;5083787;28;20107;-81
2021/05/04 16:49:29;;;;;;;13.95;3.45;;;17.60;57.90;;;;;;5083887;28;20028;-81
2021/05/04 16:51:57;;;;;;;6.05;1.67;;;17.50;58.10;;;;;;5082722;28;20025;-82
2021/05/04 16:54:23;;;;;;;8.55;2.65;;;17.50;58.50;;;;;;5083580;28;20549;-81
2021/05/04 16:56:50;;;;;;;9.18;2.45;;;17.50;58.50;;;;;;5086611;28;20032;-81
2021/05/04 16:59:16;;;;;;;11.65;2.33;;;17.40;58.40;;;;;;5083984;28;20048;-81
2021/05/04 17:01:41;;;;;;;5.60;2.20;;;17.30;58.30;;;;;;5084898;28;20082;-81
2021/05/04 17:04:07;;;;;;;11.90;2.50;;;17.50;58.00;;;;;;5082501;28;20029;-82
2021/05/04 17:06:45;;;;;;;7.28;2.35;;;17.60;58.40;;;;;;5084781;28;20147;-82
2021/05/04 17:11:38;;;;;;;7.05;2.05;;;17.70;56.10;;;;;;5084463;28;20036;-81
2021/05/04 17:14:04;;;;;;;8.40;2.20;;;17.60;55.50;;;;;;5080880;28;20056;-83
2021/05/04 17:16:30;;;;;;;14.80;3.63;;;17.50;55.70;;;;;;5086010;28;20031;-81
2021/05/04 17:18:56;;;;;;;6.47;1.55;;;17.30;55.80;;;;;;5090154;28;20020;-78
2021/05/04 17:21:21;;;;;;;5.85;1.20;;;17.20;55.70;;;;;;5086083;28;20031;-81
2021/05/04 17:23:47;;;;;;;6.68;1.60;;;17.20;55.60;;;;;;5083844;28;20039;-84
2021/05/04 17:26:13;;;;;;;8.88;2.85;;;17.20;55.10;;;;;;5087166;28;20123;-83
2021/05/04 17:28:38;;;;;;;5.93;1.52;;;17.20;55.00;;;;;;5082635;28;20105;-79
2021/05/04 17:31:04;;;;;;;7.15;1.63;;;17.30;55.40;;;;;;5079452;28;20024;-89
2021/05/04 17:33:30;;;;;;;9.50;1.95;;;17.30;55.10;;;;;;5081582;28;20029;-83
2021/05/04 17:35:58;;;;;;;6.88;1.88;;;17.30;55.50;;;;;;5080028;28;20497;-78
2021/05/04 17:38:30;;;;;;;6.70;1.70;;;17.20;55.10;;;;;;5085516;28;20079;-84
2021/05/04 17:40:58;;;;;;;9.15;2.38;;;17.00;55.00;;;;;;5088134;28;20027;-81
2021/05/04 17:43:24;;;;;;;8.35;1.98;;;16.80;55.70;;;;;;5079666;28;20099;-79
2021/05/04 17:45:51;;;;;;;5.10;1.17;;;16.70;55.80;;;;;;5083017;28;20032;-78
2021/05/04 17:48:16;;;;;;;7.55;1.65;;;16.60;55.90;;;;;;5095070;28;20498;-81
2021/05/04 17:50:43;;;;;;;8.50;1.95;;;16.50;56.40;;;;;;5084023;28;20086;-78
2021/05/04 17:53:10;;;;;;;8.55;2.08;;;16.40;56.60;;;;;;5087451;28;20113;-82
2021/05/04 17:55:36;;;;;;;10.25;2.03;;;16.30;57.00;;;;;;5073628;28;20035;-78
2021/05/04 17:58:01;;;;;;;6.80;1.98;;;16.20;56.90;;;;;;5085707;28;20025;-79
2021/05/04 18:00:27;;;;;;;10.07;1.75;;;16.10;57.60;;;;;;5095538;28;20032;-80
2021/05/04 18:02:54;;;;;;;7.82;2.13;;;16.00;57.20;;;;;;5090148;28;20024;-78
2021/05/04 18:05:20;;;;;;;7.72;1.88;;;16.00;57.20;;;;;;5080443;28;20028;-77
2021/05/04 18:07:46;;;;;;;6.57;1.83;;;15.90;55.90;;;;;;5080295;28;20065;-79
2021/05/04 18:10:15;;;;;;;3.85;1.17;;;15.90;55.10;;;;;;5096541;28;20020;-79
2021/05/04 18:23:07;;;;;;;4.93;1.23;;;15.50;55.40;;;;;;5090077;28;20398;-77
2021/05/04 18:25:34;;;;;;;4.70;2.15;;;15.40;54.60;;;;;;5086952;28;20118;-78
2021/05/04 18:28:09;;;;;;;7.47;1.60;;;15.40;54.40;;;;;;5081212;28;20024;-79
2021/05/04 18:30:43;;;;;;;7.88;1.80;;;15.30;54.90;;;;;;5084501;28;20024;-78
2021/05/04 18:33:14;;;;;;;5.60;1.50;;;15.20;55.10;;;;;;5088947;28;20025;-80
2021/05/04 18:36:28;;;;;;;5.30;1.15;;;15.10;54.70;;;;;;5092007;28;20058;-77
2021/05/04 19:00:48;;;;;;;6.85;2.05;;;14.60;55.90;;;;;;5080640;28;20082;-78
2021/05/04 19:21:54;;;;;;;3.92;1.83;;;14.20;57.40;;;;;;5078279;28;20028;-77
2021/05/04 19:29:57;;;;;;;10.02;2.00;;;13.90;58.00;;;;;;5083895;28;20546;-77
2021/05/04 20:10:29;;;;;;;9.65;2.67;;;13.30;60.30;;;;;;5077749;28;20033;-82
2021/05/04 20:12:56;;;;;;;11.25;3.15;;;13.20;59.70;;;;;;5079200;28;20439;-81
2021/05/04 20:15:25;;;;;;;5.00;2.30;;;13.20;59.90;;;;;;5082079;28;20394;-83
2021/05/04 20:17:53;;;;;;;7.53;2.03;;;13.20;60.20;;;;;;5083208;28;20035;-83
2021/05/04 20:22:46;;;;;;;6.93;2.30;;;13.10;60.20;;;;;;5078498;28;20031;-82
2021/05/04 20:25:14;;;;;;;9.25;2.75;;;13.10;60.50;;;;;;5080837;28;20036;-83
2021/05/04 20:27:39;;;;;;;6.47;2.20;;;13.00;60.70;;;;;;5078971;28;20025;-85
2021/05/04 20:30:06;;;;;;;8.40;2.10;;;13.00;60.40;;;;;;5076599;28;20028;-82
2021/05/04 20:32:32;;;;;;;9.73;1.90;;;13.00;61.10;;;;;;5085302;28;20028;-80
2021/05/04 20:34:58;;;;;;;9.23;2.13;;;12.90;61.30;;;;;;5078055;28;20043;-83
2021/05/04 20:37:24;;;;;;;8.07;2.30;;;12.80;61.90;;;;;;5077706;28;20494;-80
2021/05/04 20:39:50;;;;;;;8.18;2.38;;;12.80;62.40;;;;;;5080341;28;20088;-87
2021/05/04 20:42:19;;;;;;;6.70;2.78;;;12.70;62.60;;;;;;5085461;28;20036;-85
2021/05/04 20:44:46;;;;;;;4.60;1.85;;;12.60;63.00;;;;;;5077136;28;20482;-85
2021/05/04 20:47:12;;;;;;;6.30;2.63;;;12.50;63.80;;;;;;5083721;28;20047;-85
2021/05/04 20:49:38;;;;;;;6.55;1.70;;;12.40;64.10;;;;;;5088909;28;20017;-85
2021/05/04 20:52:04;;;;;;;8.30;1.83;;;12.40;63.50;;;;;;5085586;28;20027;-84
2021/05/04 20:54:30;;;;;;;6.57;2.33;;;12.30;63.70;;;;;;5088716;28;20020;-85
2021/05/04 20:56:56;;;;;;;8.48;1.80;;;12.30;64.00;;;;;;5086337;28;20020;-84
2021/05/04 20:59:22;;;;;;;10.40;1.98;;;12.20;63.80;;;;;;5088729;28;20017;-85
2021/05/04 21:01:47;;;;;;;8.88;1.85;;;12.20;63.90;;;;;;5084551;28;20031;-85
2021/05/04 21:04:13;;;;;;;6.05;1.77;;;12.20;63.90;;;;;;5076724;28;20085;-84
2021/05/04 21:06:39;;;;;;;6.68;2.45;;;12.20;64.10;;;;;;5088417;28;20032;-85
2021/05/04 21:09:12;;;;;;;5.65;1.70;;;12.20;63.70;;;;;;5084799;28;20059;-85
2021/05/04 21:11:59;;;;;;;8.95;1.98;;;12.10;64.50;;;;;;5086739;28;20108;-84
2021/05/04 21:14:24;;;;;;;5.63;1.95;;;12.10;64.10;;;;;;5088602;28;20031;-85
2021/05/04 21:16:50;;;;;;;13.70;2.65;;;12.00;64.40;;;;;;5087708;28;20028;-84
2021/05/04 21:19:27;;;;;;;6.13;1.73;;;12.00;64.50;;;;;;5084708;28;20032;-84
2021/05/04 21:24:29;;;;;;;9.07;2.38;;;11.90;65.10;;;;;;5083979;28;20035;-86
2021/05/04 21:29:25;;;;;;;10.45;2.38;;;11.80;65.10;;;;;;5087287;28;20502;-85
2021/05/04 21:31:51;;;;;;;7.38;2.50;;;11.80;65.00;;;;;;5087788;28;20027;-84
2021/05/04 21:34:22;;;;;;;12.60;2.63;;;11.80;65.30;;;;;;5088771;28;20020;-85
2021/05/04 21:36:53;;;;;;;9.32;2.40;;;11.70;65.30;;;;;;5086260;28;20399;-85
2021/05/04 21:39:18;;;;;;;11.35;2.95;;;11.70;65.70;;;;;;5090563;28;20394;-85
2021/05/04 21:41:45;;;;;;;6.30;2.78;;;11.70;65.50;;;;;;5085788;28;20111;-85
2021/05/04 21:44:13;;;;;;;8.90;2.03;;;11.60;65.30;;;;;;5086685;28;20537;-86
2021/05/04 21:46:39;;;;;;;4.72;1.63;;;11.60;64.70;;;;;;5083700;28;20449;-85
2021/05/04 21:49:05;;;;;;;5.43;1.67;;;11.60;64.60;;;;;;5092538;28;20073;-84
2021/05/04 21:51:32;;;;;;;4.55;1.63;;;11.60;64.60;;;;;;5077737;28;20119;-84
2021/05/04 21:53:57;;;;;;;6.63;2.25;;;11.50;63.90;;;;;;5077228;28;20021;-85
2021/05/04 21:56:23;;;;;;;7.22;1.80;;;11.50;64.00;;;;;;5079324;28;20028;-85
2021/05/04 21:58:49;;;;;;;16.15;2.78;;;11.50;65.00;;;;;;5095862;28;20028;-85
2021/05/04 22:01:15;;;;;;;8.10;2.00;;;11.50;64.20;;;;;;5096472;28;20111;-85
2021/05/04 22:03:41;;;;;;;7.35;1.77;;;11.40;64.30;;;;;;5099043;28;20441;-85
2021/05/04 22:06:07;;;;;;;7.22;1.50;;;11.30;64.00;;;;;;5096062;28;20028;-85
2021/05/04 22:08:33;;;;;;;7.13;1.80;;;11.30;65.00;;;;;;5098931;28;20036;-85
2021/05/04 22:10:59;;;;;;;4.85;1.38;;;11.20;64.30;;;;;;5091511;28;20108;-85
2021/05/04 22:13:29;;;;;;;6.38;1.98;;;11.10;64.90;;;;;;5086324;28;20114;-85
2021/05/04 22:37:07;;;;;;;6.20;1.65;;;10.90;65.60;;;;;;5097931;28;20127;-84
2021/05/04 22:39:33;;;;;;;5.43;1.42;;;10.80;65.40;;;;;;5081544;28;20056;-84
2021/05/04 22:42:06;;;;;;;6.82;1.73;;;10.80;65.60;;;;;;5093489;28;20024;-84
2021/05/04 23:17:01;;;;;;;7.00;2.08;;;10.40;65.70;;;;;;5077614;28;20563;-84
2021/05/04 23:19:28;;;;;;;8.02;2.25;;;10.40;65.80;;;;;;5091128;28;20024;-85
2021/05/04 23:21:54;;;;;;;2.92;1.52;;;10.40;66.10;;;;;;5077775;28;20025;-84
2021/05/04 23:24:21;;;;;;;6.65;1.80;;;10.30;65.20;;;;;;5090972;28;20020;-85
2021/05/04 23:26:50;;;;;;;4.20;1.80;;;10.30;65.80;;;;;;5074469;28;20036;-85
2021/05/04 23:29:16;;;;;;;5.25;1.70;;;10.30;65.60;;;;;;5077204;28;20047;-85
2021/05/04 23:31:42;;;;;;;6.40;2.03;;;10.20;65.10;;;;;;5085317;28;20372;-85
2021/05/04 23:34:08;;;;;;;5.38;1.90;;;10.20;65.30;;;;;;5085875;28;20021;-85
2021/05/04 23:36:34;;;;;;;5.45;1.73;;;10.30;64.90;;;;;;5074217;28;20040;-85
2021/05/04 23:39:00;;;;;;;6.50;1.80;;;10.30;65.20;;;;;;5076357;28;20445;-84
2021/05/04 23:41:26;;;;;;;9.43;2.22;;;10.20;65.30;;;;;;5074204;28;20480;-85
2021/05/04 23:43:52;;;;;;;6.90;1.88;;;10.20;65.30;;;;;;5075597;28;20107;-85
2021/05/04 23:46:18;;;;;;;11.15;2.72;;;10.20;65.50;;;;;;5076935;28;20059;-85
2021/05/04 23:48:44;;;;;;;5.63;1.85;;;10.00;65.10;;;;;;5091013;28;20107;-85
2021/05/04 23:51:12;;;;;;;3.75;1.45;;;10.10;65.40;;;;;;5077482;28;20467;-84
2021/05/04 23:53:39;;;;;;;2.88;1.58;;;10.10;65.10;;;;;;5075249;28;20028;-85
2021/05/04 23:56:05;;;;;;;3.35;1.67;;;10.10;65.80;;;;;;5092601;28;20044;-84
2021/05/04 23:58:31;;;;;;;4.32;1.35;;;10.10;65.60;;;;;;5079251;28;20027;-84
